Weather at Omori Bell Port Helipad

Public forecast

Using degrees Celsius for public forecast. Weather courtesy of forecast.io.

Closest aviation weather report (METAR) to Omori Bell Port Helipad

Closest report is Tokyo Haneda International Airport, 3.2 nm (5.9 km) SE.

2023/03/21 05:00 (retrieved 27 minutes ago)

RJTT 210500Z 13003KT 100V210 9999 FEW020 BKN060 BKN180 15/10 Q1015 NOSIG RMK 1CU020 5SC060 7AC180 A3000

Closest aviation forecast (TAF) to Omori Bell Port Helipad

Forecast is more than 6 hours old.

Closest forecast is Yokota Air Base, 21.1 nm (39.0 km) WNW.

2023/03/20 21:12 (retrieved 8 hours ago)

TAF TAF RJTY 202108Z 2021/2203 28006KT 9999 FEW180 SCT250 QNH2999INS TEMPO 2100/2104 VRB06KT SCT180 BKN250 BECMG 2104/2105 14009KT 9999 BKN180 BKN250 QNH2998INS TEMPO 2105/2109 16010G15KT BECMG 2111/2112 VRB06KT 9999 SCT075 OVC180 QNH2996INS BECMG 2121/2122 34006KT 9999 SCT035 BKN075 QNH2998INS TX18/2106Z TN06/2021Z